West Fargo, North Dakota
Current Conditions -  °F | °C
As of 3:53 PM on Monday 22 Dec 2014 (Local Time) from KFAR Reporting Station
Overcast Overcast  
Wind Chill: 33°   Ceiling: 900
Heat Index: 40°   Visibility: 10mi
Dew Point: 37°   Wind: 12mph
Humidity: 89%   Direction: 100°E
Pressure: 29.54"   Gusts: NA
Location:  46.87°N, 96.88°W
Report Text: KFAR 222153Z 10010KT 10SM OVC009 04/03 A2954 RMK AO2 SLP010 T00440028
Loading
Personal Weather Stations






























Interactive Weather Map New forecast layout! Learn more

10-Day Weather Forecast

Advertisements
Track Severe Weather on mobile